Ventnor, United Kingdom
Current Conditions -  °F | °C
As of 4:50 PM on Saturday 22 Nov 2014 (Local Time) from EGHI Reporting Station
Broken Clouds Broken Clouds  
Wind Chill: 55°   Ceiling: 1300
Heat Index: 55°   Visibility: 4mi
Dew Point: 55°   Wind: 6mph
Humidity: 100%   Direction: 210°SSW
Pressure: 29.94"   Gusts: NA
Location:  50.59°N, 1.2°W
Report Text: EGHI 221650Z 21005KT 6000 FEW004 SCT006 BKN013 13/13 Q1014
Loading
Personal Weather Stations






























Interactive Weather Map New forecast layout! Learn more

10-Day Weather Forecast

Advertisements
Track Severe Weather on mobile